createdAt,value
2023-03-05T00:01:53.436Z,48.17
2023-03-05T00:04:42.070Z,48.46
2023-03-05T00:07:30.677Z,48.51
2023-03-05T00:10:19.410Z,48.71
2023-03-05T00:13:08.124Z,48.41
2023-03-05T00:15:58.270Z,48.33
2023-03-05T00:18:47.380Z,47.82
2023-03-05T00:21:37.621Z,48.35
2023-03-05T00:24:26.365Z,48.04
2023-03-05T00:27:15.077Z,48.26
2023-03-05T00:30:03.697Z,48.29
2023-03-05T00:32:53.675Z,48.03
2023-03-05T00:35:42.498Z,48.25
2023-03-05T00:38:31.150Z,48.29
2023-03-05T00:41:19.834Z,48.08
2023-03-05T00:44:08.857Z,47.98
2023-03-05T00:46:57.569Z,47.68
2023-03-05T00:49:47.653Z,47.88
2023-03-05T00:52:36.279Z,48.27
2023-03-05T00:55:24.915Z,47.94
2023-03-05T00:58:13.538Z,48.28
2023-03-05T01:01:02.954Z,48.13
2023-03-05T01:03:51.817Z,48.10
2023-03-05T01:06:44.696Z,48.24
2023-03-05T01:09:33.613Z,47.98
2023-03-05T01:12:22.288Z,47.96
2023-03-05T01:15:11.586Z,48.22
2023-03-05T01:18:00.340Z,48.29
2023-03-05T01:20:49.705Z,48.60
2023-03-05T01:23:39.754Z,47.99
2023-03-05T01:26:28.712Z,48.27
2023-03-05T01:29:17.440Z,48.00
2023-03-05T01:32:06.590Z,48.21
2023-03-05T01:34:55.468Z,48.25
2023-03-05T01:37:44.348Z,47.91
2023-03-05T01:40:34.672Z,48.22
2023-03-05T01:43:27.672Z,48.05
2023-03-05T01:46:35.948Z,48.37
2023-03-05T01:49:26.868Z,47.97
2023-03-05T01:52:18.184Z,48.12
2023-03-05T01:55:09.429Z,48.07
2023-03-05T01:58:02.610Z,48.32
2023-03-05T02:00:53.888Z,47.97
2023-03-05T02:03:43.188Z,48.05
2023-03-05T02:06:32.054Z,47.93
2023-03-05T02:09:23.518Z,48.11
2023-03-05T02:12:13.469Z,48.23
2023-03-05T02:15:03.623Z,47.76
2023-03-05T02:17:52.640Z,48.33
2023-03-05T02:20:52.074Z,48.41
2023-03-05T02:23:42.187Z,48.20
2023-03-05T02:26:30.866Z,48.01
2023-03-05T02:29:21.640Z,47.94
2023-03-05T02:32:10.608Z,48.01
2023-03-05T02:34:59.285Z,48.26
2023-03-05T02:37:48.036Z,48.19
2023-03-05T02:40:37.982Z,47.91
2023-03-05T02:43:26.876Z,48.22
2023-03-05T02:46:15.603Z,48.20
2023-03-05T02:49:04.270Z,48.02
2023-03-05T02:51:52.884Z,47.77
2023-03-05T02:54:41.551Z,48.18
2023-03-05T02:57:31.576Z,48.24
2023-03-05T03:00:20.603Z,48.07
2023-03-05T03:03:09.534Z,48.00
2023-03-05T03:05:58.246Z,48.06
2023-03-05T03:08:46.839Z,47.93
2023-03-05T03:11:35.468Z,47.96
2023-03-05T03:14:25.730Z,47.69
2023-03-05T03:17:25.177Z,47.95
2023-03-05T03:20:17.116Z,48.18
2023-03-05T03:23:05.748Z,47.67
2023-03-05T03:25:54.465Z,47.91
2023-03-05T03:28:43.048Z,48.05
2023-03-05T03:31:33.051Z,48.00
2023-03-05T03:34:22.230Z,48.12
2023-03-05T03:37:10.911Z,47.91
2023-03-05T03:39:59.822Z,48.08
2023-03-05T03:42:48.398Z,47.93
2023-03-05T03:45:37.157Z,47.90
2023-03-05T03:48:27.259Z,47.82
2023-03-05T03:51:15.970Z,48.32
2023-03-05T03:54:04.711Z,48.14
2023-03-05T03:56:53.661Z,48.37
2023-03-05T03:59:42.296Z,48.18
2023-03-05T04:02:30.884Z,48.00
2023-03-05T04:05:20.974Z,48.29
2023-03-05T04:08:12.108Z,47.81
2023-03-05T04:11:02.849Z,48.33
2023-03-05T04:13:51.805Z,48.38
2023-03-05T04:16:40.596Z,48.45
2023-03-05T04:19:30.746Z,48.42
2023-03-05T04:22:20.980Z,48.23
2023-03-05T04:25:10.312Z,48.23
2023-03-05T04:27:59.018Z,48.36
2023-03-05T04:30:47.790Z,48.36
2023-03-05T04:33:36.538Z,48.16
2023-03-05T04:36:25.266Z,48.30
2023-03-05T04:39:15.471Z,48.41
2023-03-05T04:42:04.222Z,48.15
2023-03-05T04:44:53.319Z,48.34
2023-03-05T04:47:42.073Z,48.42
2023-03-05T04:50:30.824Z,48.12
2023-03-05T04:53:19.611Z,47.84
2023-03-05T04:56:09.921Z,48.17
2023-03-05T04:58:58.691Z,48.17
2023-03-05T05:01:47.456Z,48.13
2023-03-05T05:04:36.735Z,48.15
2023-03-05T05:07:25.638Z,48.38
2023-03-05T05:10:15.714Z,47.98
2023-03-05T05:13:05.817Z,48.31
2023-03-05T05:15:54.722Z,48.41
2023-03-05T05:18:43.495Z,48.20
2023-03-05T05:21:32.262Z,47.65
2023-03-05T05:24:21.073Z,48.03
2023-03-05T05:27:09.878Z,48.15
2023-03-05T05:29:59.960Z,48.01
2023-03-05T05:32:48.914Z,48.40
2023-03-05T05:35:40.960Z,48.45
2023-03-05T05:38:29.889Z,48.16
2023-03-05T05:41:19.983Z,48.38
2023-03-05T05:44:08.672Z,48.00
2023-03-05T05:46:58.879Z,48.26
2023-03-05T05:49:47.772Z,48.20
2023-03-05T05:52:36.508Z,48.00
2023-03-05T05:55:25.271Z,48.56
2023-03-05T05:58:14.071Z,48.64
2023-03-05T06:01:02.928Z,48.36
2023-03-05T06:03:53.154Z,48.43
2023-03-05T06:06:41.896Z,48.38
2023-03-05T06:09:30.743Z,48.23
2023-03-05T06:12:19.486Z,48.52
2023-03-05T06:15:09.434Z,48.25
2023-03-05T06:17:58.138Z,48.28
2023-03-05T06:20:55.943Z,48.32
2023-03-05T06:23:45.045Z,47.98
2023-03-05T06:26:34.551Z,48.26
2023-03-05T06:29:23.210Z,48.29
2023-03-05T06:32:11.979Z,48.42
2023-03-05T06:35:00.760Z,48.29
2023-03-05T06:37:50.913Z,48.76
2023-03-05T06:40:41.005Z,48.74
2023-03-05T06:43:30.011Z,48.47
2023-03-05T06:46:20.500Z,48.29
2023-03-05T06:49:09.837Z,48.47
2023-03-05T06:51:58.612Z,48.83
2023-03-05T06:54:48.813Z,49.01
2023-03-05T06:57:38.440Z,49.01
2023-03-05T07:00:29.702Z,48.91
2023-03-05T07:03:18.622Z,48.78
2023-03-05T07:06:09.228Z,48.75
2023-03-05T07:08:58.615Z,48.98
2023-03-05T07:11:48.819Z,48.71
2023-03-05T07:14:38.368Z,49.32
2023-03-05T07:17:27.315Z,49.19
2023-03-05T07:20:16.087Z,49.01
2023-03-05T07:23:05.136Z,48.73
2023-03-05T07:25:53.832Z,49.13
2023-03-05T07:28:44.299Z,49.27
2023-03-05T07:31:33.172Z,49.33
2023-03-05T07:34:21.988Z,49.22
2023-03-05T07:37:10.594Z,48.86
2023-03-05T07:39:59.301Z,49.05
2023-03-05T07:42:47.846Z,48.28
2023-03-05T07:45:41.219Z,48.20
2023-03-05T07:48:29.878Z,48.47
2023-03-05T07:51:20.422Z,48.70
2023-03-05T07:54:10.268Z,49.26
2023-03-05T07:56:58.948Z,49.15
2023-03-05T07:59:47.609Z,48.59
2023-03-05T08:02:37.736Z,48.64
2023-03-05T08:05:26.418Z,48.55
2023-03-05T08:08:15.093Z,48.47
2023-03-05T08:11:05.776Z,48.49
2023-03-05T08:13:54.410Z,48.52
2023-03-05T08:16:43.405Z,48.23
2023-03-05T08:19:33.975Z,48.30
2023-03-05T08:22:22.713Z,48.59
2023-03-05T08:25:11.631Z,48.79
2023-03-05T08:28:00.388Z,48.49
2023-03-05T08:30:50.241Z,48.44
2023-03-05T08:33:39.193Z,48.24
2023-03-05T08:36:29.569Z,48.38
2023-03-05T08:39:18.729Z,48.23
2023-03-05T08:42:09.011Z,47.48
2023-03-05T08:44:57.863Z,46.19
2023-03-05T08:47:46.591Z,46.22
2023-03-05T08:50:35.377Z,45.52
2023-03-05T08:53:26.420Z,44.52
2023-03-05T08:56:15.555Z,45.30
2023-03-05T08:59:05.712Z,46.00
2023-03-05T09:01:54.340Z,45.38
2023-03-05T09:04:43.074Z,45.87
2023-03-05T09:07:31.820Z,45.59
2023-03-05T09:10:22.119Z,45.96
2023-03-05T09:13:10.754Z,46.27
2023-03-05T09:16:00.516Z,46.77
2023-03-05T09:18:49.292Z,46.17
2023-03-05T09:21:38.454Z,45.50
2023-03-05T09:24:27.236Z,45.25
2023-03-05T09:27:17.327Z,45.27
2023-03-05T09:30:07.786Z,44.88
2023-03-05T09:32:56.636Z,44.46
2023-03-05T09:35:45.344Z,45.14
2023-03-05T09:38:36.412Z,44.59
2023-03-05T09:41:34.194Z,44.60
2023-03-05T09:44:32.897Z,44.52
2023-03-05T09:47:31.852Z,43.98
2023-03-05T09:50:33.152Z,43.68
2023-03-05T09:53:32.176Z,43.46
2023-03-05T09:56:24.168Z,42.93
2023-03-05T09:59:22.760Z,42.77
2023-03-05T10:02:20.906Z,42.54
2023-03-05T10:05:15.274Z,42.28
2023-03-05T10:08:06.500Z,42.18
2023-03-05T10:10:55.948Z,42.92
2023-03-05T10:13:48.796Z,43.96
2023-03-05T10:16:58.176Z,43.81
2023-03-05T10:19:58.617Z,42.58
2023-03-05T10:23:12.863Z,39.73
2023-03-05T10:26:24.543Z,41.58
2023-03-05T10:29:40.403Z,41.69
2023-03-05T10:32:55.215Z,41.79
2023-03-05T10:36:00.837Z,41.65
2023-03-05T10:39:00.872Z,41.57
2023-03-05T10:42:02.561Z,41.60
2023-03-05T10:44:54.824Z,41.18
2023-03-05T10:47:47.287Z,40.87
2023-03-05T10:50:39.443Z,40.43
2023-03-05T10:53:34.648Z,40.54
2023-03-05T10:56:27.062Z,40.20
2023-03-05T10:59:20.146Z,40.41
2023-03-05T11:02:10.221Z,40.18
2023-03-05T11:04:59.249Z,33.92
2023-03-05T11:07:48.724Z,34.72
2023-03-05T11:10:40.108Z,36.83
2023-03-05T11:13:30.130Z,37.46
2023-03-05T11:16:21.401Z,38.34
2023-03-05T11:19:19.798Z,38.26
2023-03-05T11:22:15.031Z,38.58
2023-03-05T11:25:18.788Z,38.75
2023-03-05T11:28:31.913Z,39.13
2023-03-05T11:31:24.672Z,39.73
2023-03-05T11:34:24.639Z,39.92
2023-03-05T11:37:23.839Z,41.29
2023-03-05T11:40:22.348Z,41.63
2023-03-05T11:43:18.138Z,41.47
2023-03-05T11:46:07.092Z,41.48
2023-03-05T11:48:56.575Z,41.43
2023-03-05T11:51:48.448Z,41.52
2023-03-05T11:54:47.849Z,41.67
2023-03-05T11:58:01.501Z,42.24
2023-03-05T12:01:14.167Z,41.37
2023-03-05T12:21:59.074Z,41.37
2023-03-05T12:24:48.223Z,41.34
2023-03-05T12:43:27.046Z,41.59
2023-03-05T13:05:06.218Z,41.36
2023-03-05T13:08:50.884Z,42.16
2023-03-05T13:15:59.862Z,41.97
2023-03-05T13:22:41.336Z,42.73
2023-03-05T13:25:32.751Z,42.83
2023-03-05T13:35:55.149Z,43.14
2023-03-05T13:38:48.641Z,42.71
2023-03-05T13:41:38.914Z,44.03
2023-03-05T13:44:35.044Z,43.87
2023-03-05T13:47:26.573Z,43.42
2023-03-05T13:50:38.936Z,43.04
2023-03-05T13:53:32.596Z,43.20
2023-03-05T13:56:23.320Z,42.81
2023-03-05T13:59:19.853Z,42.97
2023-03-05T14:02:19.546Z,43.89
2023-03-05T14:05:15.721Z,42.72
2023-03-05T14:08:08.100Z,42.67
2023-03-05T14:11:00.210Z,42.14
2023-03-05T14:13:55.123Z,41.94
2023-03-05T14:16:49.907Z,42.02
2023-03-05T14:19:41.248Z,40.29
2023-03-05T14:22:32.855Z,41.04
2023-03-05T14:25:37.759Z,40.96
2023-03-05T14:29:14.875Z,41.36
2023-03-05T14:32:08.176Z,41.25
2023-03-05T14:38:55.231Z,42.12
2023-03-05T14:41:44.861Z,42.05
2023-03-05T14:44:35.920Z,41.40
2023-03-05T14:47:32.300Z,41.43
2023-03-05T14:53:47.615Z,41.59
2023-03-05T14:56:39.226Z,41.82
2023-03-05T14:59:28.523Z,41.54
2023-03-05T15:02:56.106Z,42.20
2023-03-05T15:05:49.017Z,42.00
2023-03-05T15:09:03.040Z,41.61
2023-03-05T15:15:10.016Z,41.66
2023-03-05T15:17:58.739Z,41.53
2023-03-05T15:20:52.230Z,41.31
2023-03-05T15:23:41.063Z,41.42
2023-03-05T15:26:29.724Z,41.38
2023-03-05T15:29:18.507Z,41.83
2023-03-05T15:32:07.699Z,42.27
2023-03-05T15:34:58.182Z,43.07
2023-03-05T15:37:48.196Z,43.56
2023-03-05T15:40:37.103Z,43.36
2023-03-05T15:43:26.860Z,43.35
2023-03-05T15:46:15.992Z,43.61
2023-03-05T15:49:04.674Z,43.65
2023-03-05T15:51:55.002Z,43.70
2023-03-05T15:54:45.093Z,43.56
2023-03-05T15:57:35.979Z,43.74
2023-03-05T16:00:26.791Z,44.07
2023-03-05T16:03:15.520Z,44.74
2023-03-05T16:06:05.832Z,44.82
2023-03-05T16:08:57.355Z,44.62
2023-03-05T16:11:49.246Z,44.26
2023-03-05T16:14:39.996Z,44.24
2023-03-05T16:17:28.849Z,44.23
2023-03-05T16:20:17.804Z,44.54
2023-03-05T16:23:09.309Z,44.37
2023-03-05T16:25:59.574Z,44.33
2023-03-05T16:28:49.855Z,44.66
2023-03-05T16:31:40.576Z,44.32
2023-03-05T16:34:29.822Z,44.64
2023-03-05T16:37:20.639Z,44.91
2023-03-05T16:40:13.391Z,44.89
2023-03-05T16:43:02.039Z,44.68
2023-03-05T16:45:52.072Z,45.46
2023-03-05T16:48:40.914Z,45.56
2023-03-05T16:51:29.554Z,45.07
2023-03-05T16:54:18.198Z,45.77
2023-03-05T16:57:07.603Z,45.44
2023-03-05T16:59:57.360Z,45.15
2023-03-05T17:02:47.410Z,44.93
2023-03-05T17:05:37.627Z,44.84
2023-03-05T17:08:26.288Z,44.58
2023-03-05T17:11:15.240Z,44.65
2023-03-05T17:14:04.200Z,44.55
2023-03-05T17:16:54.646Z,45.62
2023-03-05T17:19:45.830Z,45.58
2023-03-05T17:22:35.267Z,44.54
2023-03-05T17:25:24.021Z,44.88
2023-03-05T17:28:12.734Z,43.85
2023-03-05T17:31:01.509Z,43.64
2023-03-05T17:33:50.859Z,42.95
2023-03-05T17:36:40.994Z,43.50
2023-03-05T17:39:29.565Z,43.58
2023-03-05T17:42:20.521Z,43.10
2023-03-05T17:45:09.994Z,43.50
2023-03-05T17:48:10.348Z,44.40
2023-03-05T17:50:59.679Z,44.92
2023-03-05T17:53:49.803Z,45.43
2023-03-05T17:56:38.448Z,45.25
2023-03-05T17:59:27.380Z,45.71
2023-03-05T18:02:16.565Z,45.41
2023-03-05T18:05:05.209Z,45.31
2023-03-05T18:07:54.861Z,45.38
2023-03-05T18:10:44.856Z,45.15
2023-03-05T18:13:33.489Z,45.37
2023-03-05T18:16:23.407Z,44.82
2023-03-05T18:19:14.949Z,45.29
2023-03-05T18:22:03.582Z,45.66
2023-03-05T18:24:52.196Z,46.12
2023-03-05T18:27:42.409Z,45.06
2023-03-05T18:30:31.719Z,44.41
2023-03-05T18:33:22.250Z,44.64
2023-03-05T18:36:12.292Z,43.96
2023-03-05T18:39:01.087Z,44.05
2023-03-05T18:41:50.091Z,43.66
2023-03-05T18:44:40.228Z,43.67
2023-03-05T18:47:29.492Z,43.83
2023-03-05T18:50:19.522Z,43.60
2023-03-05T18:53:08.952Z,43.40
2023-03-05T18:55:57.690Z,42.69
2023-03-05T18:58:47.648Z,41.46
2023-03-05T19:01:38.091Z,41.77
2023-03-05T19:04:32.776Z,42.00
2023-03-05T19:07:22.200Z,41.79
2023-03-05T19:10:12.509Z,41.55
2023-03-05T19:13:15.890Z,41.45
2023-03-05T19:16:09.392Z,41.16
2023-03-05T19:19:05.229Z,41.68
2023-03-05T19:21:56.706Z,41.44
2023-03-05T19:24:46.098Z,41.28
2023-03-05T19:27:35.858Z,41.15
2023-03-05T19:30:24.859Z,41.06
2023-03-05T19:33:13.532Z,40.94
2023-03-05T19:36:03.786Z,40.95
2023-03-05T19:38:52.835Z,40.57
2023-03-05T19:41:41.965Z,40.48
2023-03-05T19:44:31.655Z,40.54
2023-03-05T19:47:20.868Z,40.42
2023-03-05T19:50:11.635Z,40.16
2023-03-05T19:53:02.012Z,40.47
2023-03-05T19:55:50.942Z,40.04
2023-03-05T19:58:45.389Z,40.09
2023-03-05T20:01:35.151Z,40.06
2023-03-05T20:04:25.894Z,39.71
2023-03-05T20:07:14.846Z,39.96
2023-03-05T20:10:06.229Z,39.62
2023-03-05T20:12:57.899Z,39.71
2023-03-05T20:15:46.723Z,40.09
2023-03-05T20:18:35.481Z,40.42
2023-03-05T20:21:26.268Z,41.16
2023-03-05T20:24:19.688Z,41.18
2023-03-05T20:27:09.875Z,41.43
2023-03-05T20:29:58.706Z,41.63
2023-03-05T20:32:47.846Z,41.97
2023-03-05T20:35:36.808Z,41.96
2023-03-05T20:38:26.227Z,42.11
2023-03-05T20:41:16.900Z,42.25
2023-03-05T20:44:07.408Z,42.54
2023-03-05T20:47:09.923Z,42.55
2023-03-05T20:50:00.245Z,42.44
2023-03-05T20:52:48.893Z,43.17
2023-03-05T20:55:37.573Z,42.67
2023-03-05T20:58:26.297Z,42.61
2023-03-05T21:01:16.234Z,42.61
2023-03-05T21:04:05.350Z,43.23
2023-03-05T21:06:54.271Z,43.11
2023-03-05T21:09:42.833Z,43.15
2023-03-05T21:12:33.044Z,43.94
2023-03-05T21:15:23.453Z,44.29
2023-03-05T21:18:14.871Z,44.26
2023-03-05T21:21:03.916Z,44.89
2023-03-05T21:24:01.586Z,45.01
2023-03-05T21:26:50.279Z,45.59
2023-03-05T21:29:49.660Z,45.53
2023-03-05T21:32:38.685Z,45.71
2023-03-05T21:38:37.669Z,45.27
2023-03-05T21:41:27.647Z,45.43
2023-03-05T21:44:17.779Z,45.83
2023-03-05T21:47:06.583Z,45.95
2023-03-05T21:49:55.456Z,46.64
2023-03-05T21:52:45.465Z,46.71
2023-03-05T21:55:43.145Z,46.20
2023-03-05T21:58:32.834Z,46.53
2023-03-05T22:01:22.613Z,46.52
2023-03-05T22:04:11.438Z,46.56
2023-03-05T22:07:00.160Z,46.38
2023-03-05T22:09:55.688Z,46.70
2023-03-05T22:12:54.407Z,47.20
2023-03-05T22:15:44.826Z,47.09
2023-03-05T22:18:34.196Z,47.39
2023-03-05T22:21:25.768Z,47.15
2023-03-05T22:24:14.658Z,47.06
2023-03-05T22:27:05.114Z,47.41
2023-03-05T22:29:54.071Z,47.22
2023-03-05T22:32:42.988Z,46.86
2023-03-05T22:35:32.349Z,47.35
2023-03-05T22:38:21.154Z,47.27
2023-03-05T22:41:10.628Z,47.24
2023-03-05T22:44:00.966Z,47.70
2023-03-05T22:46:50.767Z,47.09
2023-03-05T22:49:39.744Z,47.32
2023-03-05T22:52:28.842Z,47.41
2023-03-05T22:55:20.510Z,47.25
2023-03-05T22:58:09.404Z,47.17
2023-03-05T23:01:00.110Z,47.50
2023-03-05T23:03:56.673Z,47.34
2023-03-05T23:06:45.929Z,47.56
2023-03-05T23:09:34.811Z,47.43
2023-03-05T23:12:24.313Z,47.38
2023-03-05T23:15:14.912Z,47.91
2023-03-05T23:18:07.890Z,47.91
2023-03-05T23:20:56.629Z,47.87
2023-03-05T23:23:45.314Z,47.55
2023-03-05T23:26:34.110Z,47.97
2023-03-05T23:29:34.500Z,47.76
2023-03-05T23:32:23.167Z,47.68
2023-03-05T23:35:14.223Z,47.81
2023-03-05T23:38:13.036Z,47.97
2023-03-05T23:41:03.423Z,47.88
2023-03-05T23:43:56.632Z,48.13
2023-03-05T23:46:45.541Z,47.85
2023-03-05T23:49:37.504Z,47.66
2023-03-05T23:52:30.411Z,47.87
2023-03-05T23:55:21.605Z,47.84
2023-03-05T23:58:10.523Z,47.72
